Weather at Tweed New Haven Airport

Public forecast

Using degrees Fahrenheit for public forecast. Weather courtesy of forecast.io.

Current aviation weather report (METAR) for Tweed New Haven Airport

Retrieved 2021/03/03 14:53 UTC (2 hours ago):

KHVN 031453Z 24006KT 10SM CLR 04/M07 A2988 RMK AO2 SLP118 T00391072 58013

Closest aviation forecast (TAF) to Tweed New Haven Airport

Forecast is more than 6 hours old.

Closest forecast is Igor I Sikorsky Memorial Airport, 12.4 nm (22.9 km) WSW. Retrieved 2021/03/03 06:33 UTC (10 hours ago):

TAF KBDR 030530Z 0306/0406 24007KT P6SM FEW250 FM031300 26011KT P6SM FEW250 FM031800 27010KT P6SM SCT250 FM040000 29005KT P6SM SCT050 OVC100 FM040300 32003KT P6SM SCT050 OVC100